Time;durP1;ratioP1;P1;durP2;ratioP2;P2;SDS_P1;SDS_P2;PMS_P1;PMS_P2;Temp;Humidity;BMP_temperature;BMP_pressure;BME280_temperature;BME280_humidity;BME280_pressure;Samples;Min_cycle;Max_cycle;Signal;HPM_P1;HPM_P2
2022/11/02 00:00:55;;;;;;;8.30;2.40;;;;;;;11.98;100.00;100715.94;5038456;28;20038;-66
2022/11/02 00:03:21;;;;;;;6.28;2.30;;;;;;;12.10;100.00;100726.25;5038570;28;20060;-67
2022/11/02 00:05:47;;;;;;;5.07;2.72;;;;;;;12.10;100.00;100715.56;5038983;28;20025;-67
2022/11/02 00:08:12;;;;;;;9.02;2.85;;;;;;;12.12;100.00;100727.97;5037238;28;20029;-67
2022/11/02 00:10:38;;;;;;;7.93;3.10;;;;;;;12.12;100.00;100719.97;5035416;28;20033;-66
2022/11/02 00:13:03;;;;;;;5.47;2.20;;;;;;;12.13;100.00;100715.47;5038203;28;20037;-67
2022/11/02 00:15:32;;;;;;;8.30;2.70;;;;;;;12.14;100.00;100717.25;5036402;28;20033;-67
2022/11/02 00:18:02;;;;;;;11.05;2.42;;;;;;;12.15;100.00;100717.22;5036072;28;20028;-67
2022/11/02 00:20:27;;;;;;;7.68;2.38;;;;;;;12.16;100.00;100713.59;5038041;28;20033;-67
2022/11/02 00:22:56;;;;;;;6.80;4.18;;;;;;;12.17;100.00;100717.16;5037921;28;20027;-67
2022/11/02 00:25:23;;;;;;;6.88;2.83;;;;;;;12.16;100.00;100710.94;5036954;28;20582;-67
2022/11/02 00:27:48;;;;;;;4.82;2.63;;;;;;;12.17;100.00;100712.72;5029636;28;20532;-67
2022/11/02 00:30:14;;;;;;;9.98;3.03;;;;;;;12.18;100.00;100714.44;5021769;28;20037;-68
2022/11/02 00:32:40;;;;;;;8.93;2.55;;;;;;;12.22;100.00;100713.47;5021063;28;20026;-68
2022/11/02 00:35:05;;;;;;;8.45;2.92;;;;;;;12.27;100.00;100714.22;5020722;28;20053;-68
2022/11/02 00:37:32;;;;;;;6.95;2.28;;;;;;;12.32;100.00;100717.59;5043919;28;20021;-66
2022/11/02 00:39:57;;;;;;;7.28;2.67;;;;;;;12.32;100.00;100717.59;5019702;28;20029;-66
2022/11/02 00:42:22;;;;;;;6.22;2.47;;;;;;;12.34;100.00;100714.91;5018396;28;20084;-67
2022/11/02 00:44:48;;;;;;;7.45;2.33;;;;;;;12.39;100.00;100716.50;5029774;28;20034;-66
2022/11/02 00:47:13;;;;;;;7.10;2.50;;;;;;;12.44;100.00;100716.34;5035141;28;20021;-68
2022/11/02 00:49:39;;;;;;;3.90;1.65;;;;;;;12.49;100.00;100717.09;5024001;28;20037;-68
2022/11/02 00:52:04;;;;;;;4.10;1.90;;;;;;;12.52;100.00;100719.72;5026246;28;20037;-67
2022/11/02 00:54:30;;;;;;;6.18;1.63;;;;;;;12.54;100.00;100721.41;5026824;28;20053;-68
2022/11/02 00:56:55;;;;;;;7.00;1.90;;;;;;;12.58;100.00;100715.06;5015793;28;20129;-68
2022/11/02 00:59:21;;;;;;;4.68;1.85;;;;;;;12.57;100.00;100710.63;5019481;28;20156;-68
2022/11/02 01:01:48;;;;;;;6.70;1.77;;;;;;;12.61;100.00;100709.63;5038135;28;20497;-67
2022/11/02 01:04:14;;;;;;;10.35;2.40;;;;;;;12.66;100.00;100710.38;5036819;28;20022;-68
2022/11/02 01:06:40;;;;;;;5.40;2.30;;;;;;;12.68;100.00;100700.53;5037695;28;20030;-68
2022/11/02 01:09:06;;;;;;;8.10;2.00;;;;;;;12.64;100.00;100698.84;5038144;28;20112;-67
2022/11/02 01:11:31;;;;;;;4.50;2.35;;;;;;;12.74;100.00;100695.00;5037099;28;20441;-68
2022/11/02 01:13:57;;;;;;;6.35;2.38;;;;;;;12.78;100.00;100706.44;5035237;28;20124;-67
2022/11/02 01:16:22;;;;;;;6.95;2.05;;;;;;;12.70;100.00;100685.31;5032917;28;20064;-68
2022/11/02 01:18:55;;;;;;;6.05;1.85;;;;;;;12.80;100.00;100696.59;5024591;28;20562;-67
2022/11/02 01:21:21;;;;;;;6.55;2.22;;;;;;;12.80;100.00;100701.94;5017493;28;20021;-66
2022/11/02 01:23:47;;;;;;;6.65;1.83;;;;;;;12.83;100.00;100699.19;5018402;28;20061;-67
2022/11/02 01:26:13;;;;;;;6.30;1.88;;;;;;;12.84;100.00;100701.78;5019686;28;20033;-66
2022/11/02 01:28:39;;;;;;;3.30;1.85;;;;;;;12.85;100.00;100692.84;5019033;28;20163;-67
2022/11/02 01:31:06;;;;;;;6.43;2.00;;;;;;;12.86;100.00;100686.63;5031867;28;20021;-67
2022/11/02 01:33:32;;;;;;;3.35;1.40;;;;;;;12.89;100.00;100683.84;5034889;28;20033;-66
2022/11/02 01:35:57;;;;;;;5.90;1.70;;;;;;;12.91;100.00;100687.34;5021648;28;20082;-67
2022/11/02 01:38:24;;;;;;;6.68;1.50;;;;;;;12.94;100.00;100681.91;5024504;28;20030;-67
2022/11/02 01:40:49;;;;;;;4.43;1.75;;;;;;;12.97;100.00;100688.94;5038716;28;20025;-67
2022/11/02 01:43:26;;;;;;;5.55;2.25;;;;;;;12.98;100.00;100682.69;5038173;28;20044;-67
2022/11/02 01:46:06;;;;;;;4.05;2.10;;;;;;;12.95;100.00;100680.97;5035272;28;20047;-67
2022/11/02 01:48:35;;;;;;;15.75;2.60;;;;;;;12.96;100.00;100679.19;5035644;28;20121;-67
2022/11/02 01:51:04;;;;;;;9.48;2.33;;;;;;;12.97;100.00;100681.81;5033344;28;20141;-66
2022/11/02 01:53:32;;;;;;;5.80;1.40;;;;;;;12.95;100.00;100670.28;5034127;28;20017;-67
2022/11/02 01:55:59;;;;;;;7.00;1.63;;;;;;;12.92;100.00;100667.72;5034740;28;20021;-67
2022/11/02 01:58:25;;;;;;;4.63;2.10;;;;;;;12.89;100.00;100667.81;5033574;28;20211;-67
2022/11/02 02:00:51;;;;;;;3.55;1.35;;;;;;;12.85;100.00;100655.47;5032657;28;20109;-67
2022/11/02 02:03:20;;;;;;;3.95;1.38;;;;;;;12.88;100.00;100655.38;5030207;28;20097;-67
2022/11/02 02:05:59;;;;;;;6.93;1.80;;;;;;;12.86;100.00;100643.91;5033294;28;20076;-67
2022/11/02 02:08:26;;;;;;;6.55;2.42;;;;;;;12.84;100.00;100653.75;5033736;28;20029;-67
2022/11/02 02:10:55;;;;;;;8.45;2.05;;;;;;;12.80;100.00;100665.44;5034854;28;20036;-67
2022/11/02 02:13:21;;;;;;;6.72;1.73;;;;;;;12.83;100.00;100662.66;5034489;28;20025;-66
2022/11/02 02:15:58;;;;;;;9.93;1.80;;;;;;;12.86;100.00;100659.91;5034201;28;20087;-67
2022/11/02 02:18:33;;;;;;;5.38;1.73;;;;;;;12.87;100.00;100667.00;5034263;28;20034;-67
2022/11/02 02:21:29;;;;;;;6.75;1.50;;;;;;;12.86;100.00;100661.69;5033865;28;20026;-67
2022/11/02 02:24:25;;;;;;;6.38;1.50;;;;;;;12.92;100.00;100661.50;5015699;28;20026;-67
2022/11/02 02:27:04;;;;;;;8.70;1.95;;;;;;;12.91;100.00;100659.75;5015328;28;20026;-66
2022/11/02 02:29:49;;;;;;;8.88;2.33;;;;;;;12.92;100.00;100659.72;5014884;28;20026;-67
2022/11/02 02:32:22;;;;;;;7.72;1.90;;;;;;;12.91;100.00;100665.97;5016931;28;20022;-67
2022/11/02 02:35:01;;;;;;;4.63;1.98;;;;;;;12.90;100.00;100663.34;5020892;28;20685;-67
2022/11/02 02:37:36;;;;;;;4.80;1.83;;;;;;;12.90;100.00;100669.56;5020249;28;20025;-67
2022/11/02 02:40:09;;;;;;;7.68;1.70;;;;;;;12.92;100.00;100669.50;5023020;28;20102;-67
2022/11/02 02:42:45;;;;;;;7.55;1.60;;;;;;;12.93;100.00;100664.13;5018365;28;20408;-66
2022/11/02 02:45:15;;;;;;;7.47;2.10;;;;;;;12.91;100.00;100668.66;5021382;28;20041;-67
2022/11/02 02:47:53;;;;;;;14.60;2.92;;;;;;;12.91;100.00;100668.66;5039462;28;20107;-67
2022/11/02 02:50:24;;;;;;;3.65;2.00;;;;;;;12.90;100.00;100669.56;5038787;28;20038;-67
2022/11/02 02:52:52;;;;;;;8.35;1.85;;;;;;;12.89;100.00;100666.94;5039786;28;20021;-68
2022/11/02 02:55:23;;;;;;;3.55;1.63;;;;;;;12.87;100.00;100663.44;5040151;28;20056;-68
2022/11/02 02:57:51;;;;;;;4.65;1.95;;;;;;;12.90;100.00;100666.00;5033055;28;20439;-68
2022/11/02 03:00:17;;;;;;;7.78;3.10;;;;;;;12.85;100.00;100655.47;5022024;28;20030;-68
2022/11/02 03:02:59;;;;;;;9.13;2.83;;;;;;;12.91;100.00;100670.44;5035960;28;20025;-67
2022/11/02 03:05:35;;;;;;;8.00;3.17;;;;;;;12.92;100.00;100667.72;5021305;28;20044;-68
2022/11/02 03:08:07;;;;;;;9.82;2.50;;;;;;;12.94;100.00;100667.66;5022051;28;20029;-68
2022/11/02 03:10:47;;;;;;;6.82;2.03;;;;;;;12.98;100.00;100672.84;5035422;28;20037;-68
2022/11/02 03:13:35;;;;;;;4.40;2.13;;;;;;;12.97;100.00;100671.13;5042543;28;20104;-67
2022/11/02 03:16:33;;;;;;;5.03;1.75;;;;;;;12.96;100.00;100669.34;5023894;28;20026;-68
2022/11/02 03:19:10;;;;;;;5.97;1.85;;;;;;;12.97;100.00;100664.91;5040278;28;20029;-68
2022/11/02 03:21:43;;;;;;;4.78;1.95;;;;;;;12.92;100.00;100667.72;5041131;28;20030;-68
2022/11/02 03:24:15;;;;;;;3.63;1.70;;;;;;;12.88;100.00;100655.38;5041821;28;20245;-66
2022/11/02 03:26:45;;;;;;;5.90;1.97;;;;;;;12.93;100.00;100660.59;5041264;28;20025;-68
2022/11/02 03:29:37;;;;;;;5.53;2.03;;;;;;;12.93;100.00;100673.94;5040353;28;20029;-69
2022/11/02 03:32:09;;;;;;;8.82;2.33;;;;;;;12.90;100.00;100664.22;5030022;28;20461;-68
2022/11/02 03:34:42;;;;;;;10.52;2.00;;;;;;;12.97;100.00;100664.91;5038777;28;20151;-65
2022/11/02 03:37:14;;;;;;;;;;;;;;;13.02;100.00;100669.22;5038394;28;20392;-66
2022/11/02 03:39:44;;;;;;;7.95;1.80;;;;;;;13.03;100.00;100675.44;5039474;28;19923;-68
2022/11/02 03:42:14;;;;;;;7.65;2.17;;;;;;;13.02;100.00;100671.88;5038341;28;20543;-65
2022/11/02 03:44:40;;;;;;;8.43;1.88;;;;;;;13.03;100.00;100686.97;5037064;28;20041;-68
2022/11/02 03:47:10;;;;;;;5.35;1.80;;;;;;;13.05;100.00;100684.25;5038389;28;20025;-68
2022/11/02 03:49:38;;;;;;;23.70;2.17;;;;;;;13.06;100.00;100686.88;5038255;28;20457;-67
2022/11/02 03:52:07;;;;;;;5.60;2.15;;;;;;;13.06;100.00;100686.88;5039927;28;20116;-68
2022/11/02 03:54:48;;;;;;;4.53;1.50;;;;;;;13.07;100.00;100683.28;5036797;28;20033;-68
2022/11/02 03:57:26;;;;;;;8.68;2.67;;;;;;;13.04;100.00;100688.72;5036800;28;20711;-67
2022/11/02 03:59:51;;;;;;;4.60;1.75;;;;;;;13.04;100.00;100695.88;5036926;28;20061;-67
2022/11/02 04:02:18;;;;;;;4.65;2.03;;;;;;;13.04;100.00;100699.41;5036398;28;20051;-67
2022/11/02 04:04:51;;;;;;;7.28;1.77;;;;;;;13.01;100.00;100707.50;5035004;28;20025;-67
2022/11/02 04:07:26;;;;;;;5.70;2.08;;;;;;;13.04;100.00;100696.75;5036748;28;20025;-67
2022/11/02 04:09:51;;;;;;;5.10;1.83;;;;;;;13.06;100.00;100697.56;5036137;28;20075;-68
2022/11/02 04:15:02;;;;;;;4.55;1.63;;;;;;;13.16;100.00;100707.03;5034231;28;20396;-67
2022/11/02 04:20:12;;;;;;;4.13;1.75;;;;;;;13.17;100.00;100706.13;5034258;28;20110;-68
2022/11/02 04:25:22;;;;;;;10.10;2.10;;;;;;;13.18;100.00;100717.66;5014228;28;20040;-67
2022/11/02 04:27:50;;;;;;;4.28;2.00;;;;;;;13.24;100.00;100720.16;5014384;28;20397;-68
2022/11/02 04:30:18;;;;;;;6.18;2.20;;;;;;;13.31;100.00;100731.50;5013300;28;20022;-68
2022/11/02 04:35:30;;;;;;;7.97;2.58;;;;;;;13.40;100.00;100739.22;5013734;28;20036;-67
2022/11/02 04:40:40;;;;;;;8.40;1.98;;;;;;;13.48;100.00;100742.50;5012139;28;20044;-68
2022/11/02 04:43:06;;;;;;;5.78;2.03;;;;;;;13.56;100.00;100740.47;4994734;28;20037;-68
2022/11/02 04:45:31;;;;;;;4.55;1.50;;;;;;;13.56;100.00;100743.16;5013306;28;20524;-68
2022/11/02 04:48:02;;;;;;;6.68;1.83;;;;;;;13.57;100.00;100747.56;5025004;28;20499;-70
2022/11/02 04:50:28;;;;;;;4.90;1.70;;;;;;;13.62;100.00;100748.28;5032282;28;20030;-69
2022/11/02 04:53:06;;;;;;;8.07;2.00;;;;;;;13.64;100.00;100754.47;5032355;28;20112;-69
2022/11/02 04:55:32;;;;;;;4.40;1.40;;;;;;;13.63;100.00;100753.56;5032190;28;20025;-69
2022/11/02 04:57:57;;;;;;;9.73;2.28;;;;;;;13.67;100.00;100755.25;5027559;28;20049;-70
2022/11/02 05:00:23;;;;;;;6.60;1.92;;;;;;;13.70;100.00;100764.94;5012454;28;20456;-69
2022/11/02 05:02:49;;;;;;;5.25;1.95;;;;;;;13.69;100.00;100766.72;5013372;28;20553;-69
2022/11/02 05:05:17;;;;;;;4.20;1.83;;;;;;;13.67;100.00;100765.94;5031823;28;20025;-70
2022/11/02 05:07:43;;;;;;;4.85;2.00;;;;;;;13.61;100.00;100758.09;5016825;28;20113;-70
2022/11/02 05:10:09;;;;;;;4.85;2.13;;;;;;;13.67;100.00;100773.94;5012238;28;20112;-70
2022/11/02 05:12:35;;;;;;;3.45;1.80;;;;;;;13.70;100.00;100783.66;5012408;28;20045;-70
2022/11/02 05:15:00;;;;;;;7.53;1.90;;;;;;;13.66;100.00;100780.19;5019366;28;20035;-70
2022/11/02 05:17:26;;;;;;;8.57;1.90;;;;;;;13.67;100.00;100786.44;5032852;28;20048;-70
2022/11/02 05:19:51;;;;;;;2.92;1.60;;;;;;;13.64;100.00;100786.53;5032230;28;20028;-70
2022/11/02 05:22:17;;;;;;;7.72;2.08;;;;;;;13.60;100.00;100788.44;5033347;28;20036;-70
2022/11/02 05:24:42;;;;;;;3.55;2.03;;;;;;;13.60;100.00;100792.91;5034843;28;20018;-68
2022/11/02 05:27:09;;;;;;;6.47;2.38;;;;;;;13.57;100.00;100763.59;5034055;28;20423;-68
2022/11/02 05:29:35;;;;;;;7.45;2.05;;;;;;;13.63;100.00;100784.78;5033814;28;20439;-68
2022/11/02 05:32:00;;;;;;;11.40;2.13;;;;;;;13.65;100.00;100783.81;5032566;28;20036;-68
2022/11/02 05:34:25;;;;;;;6.78;2.67;;;;;;;13.66;100.00;100788.22;5030854;28;20025;-68
2022/11/02 05:36:51;;;;;;;11.35;3.92;;;;;;;13.70;100.00;100789.00;5030608;28;20595;-69
2022/11/02 05:39:16;;;;;;;6.88;2.47;;;;;;;13.70;100.00;100791.69;5030777;28;20041;-68
2022/11/02 05:41:42;;;;;;;5.13;2.00;;;;;;;13.70;100.00;100797.91;5038136;28;20052;-68
2022/11/02 05:44:07;;;;;;;7.15;2.63;;;;;;;13.74;100.00;100801.34;5030529;28;20022;-69
2022/11/02 05:46:32;;;;;;;7.10;2.13;;;;;;;13.77;100.00;100793.22;5029045;28;20025;-68
2022/11/02 05:48:58;;;;;;;8.20;2.30;;;;;;;13.75;100.00;100798.63;5031304;28;20022;-69
2022/11/02 05:51:23;;;;;;;15.60;4.00;;;;;;;13.80;100.00;100798.47;5031358;28;20025;-69
2022/11/02 05:53:49;;;;;;;12.57;3.03;;;;;;;13.81;100.00;100795.75;5031364;28;20045;-69
2022/11/02 05:56:14;;;;;;;8.15;2.53;;;;;;;13.81;100.00;100794.84;5031600;28;20022;-68
2022/11/02 05:58:40;;;;;;;10.35;2.60;;;;;;;13.79;100.00;100802.09;5031340;28;20125;-69
2022/11/02 06:01:07;;;;;;;25.90;3.83;;;;;;;13.82;100.00;100805.50;5032133;28;20678;-69
2022/11/02 06:03:33;;;;;;;8.38;2.35;;;;;;;13.83;100.00;100811.72;5031200;28;20447;-69
2022/11/02 06:06:00;;;;;;;8.93;2.10;;;;;;;13.85;100.00;100812.56;5031478;28;20199;-69
2022/11/02 06:08:26;;;;;;;6.97;2.05;;;;;;;13.82;100.00;100810.00;5033035;28;20033;-70
2022/11/02 06:10:52;;;;;;;6.18;2.33;;;;;;;13.85;100.00;100817.91;5034992;28;20023;-69
2022/11/02 06:13:18;;;;;;;7.88;2.20;;;;;;;13.83;100.00;100820.66;5032343;28;20123;-70
2022/11/02 06:15:43;;;;;;;9.18;3.35;;;;;;;13.85;100.00;100829.50;5035269;28;20072;-70
2022/11/02 06:18:09;;;;;;;10.13;2.75;;;;;;;13.85;100.00;100833.97;5035143;28;20430;-70
2022/11/02 06:20:34;;;;;;;10.32;2.67;;;;;;;13.87;100.00;100837.47;5035059;28;20380;-69
2022/11/02 06:23:00;;;;;;;8.48;2.67;;;;;;;13.87;100.00;100848.16;5034899;28;20034;-70
2022/11/02 06:25:25;;;;;;;4.85;2.00;;;;;;;13.86;100.00;100846.41;5034993;28;20029;-70
2022/11/02 06:27:53;;;;;;;6.20;1.80;;;;;;;13.89;100.00;100860.53;5033730;28;20025;-70
2022/11/02 06:30:19;;;;;;;7.13;2.30;;;;;;;13.92;100.00;100863.13;5032548;28;20026;-70
2022/11/02 06:32:48;;;;;;;4.35;1.98;;;;;;;13.95;100.00;100863.00;5034754;28;20025;-71
2022/11/02 06:35:16;;;;;;;8.75;2.58;;;;;;;13.95;100.00;100863.00;5034351;28;20022;-71
2022/11/02 06:37:41;;;;;;;10.07;3.03;;;;;;;13.98;100.00;100872.75;5034621;28;20028;-70
2022/11/02 06:40:07;;;;;;;4.70;2.42;;;;;;;13.97;100.00;100868.34;5023981;28;20103;-70
2022/11/02 06:42:32;;;;;;;7.80;2.80;;;;;;;13.96;100.00;100869.25;5034383;28;20104;-71
2022/11/02 06:45:01;;;;;;;5.70;2.72;;;;;;;14.04;100.00;100883.25;5034071;28;20021;-70
2022/11/02 06:47:37;;;;;;;5.38;2.10;;;;;;;14.10;100.00;100891.09;5033278;28;20026;-69
2022/11/02 06:50:04;;;;;;;4.45;2.10;;;;;;;14.12;100.00;100883.84;5033201;28;20043;-70
2022/11/02 06:52:29;;;;;;;5.32;2.60;;;;;;;14.14;100.00;100895.38;5033177;28;20481;-70
2022/11/02 06:54:55;;;;;;;9.23;2.25;;;;;;;14.13;100.00;100888.31;5033208;28;20052;-70
2022/11/02 06:57:20;;;;;;;7.63;2.20;;;;;;;14.13;100.00;100893.66;5031678;28;20036;-70
2022/11/02 06:59:46;;;;;;;6.15;2.80;;;;;;;14.19;100.00;100893.44;5032501;28;20033;-69
2022/11/02 07:02:12;;;;;;;5.18;2.47;;;;;;;14.21;100.00;100896.94;5033575;28;20051;-69
2022/11/02 07:04:37;;;;;;;4.07;1.88;;;;;;;14.21;100.00;100902.28;5028265;28;20032;-69
2022/11/02 07:07:02;;;;;;;6.07;2.28;;;;;;;14.28;100.00;100903.88;5033629;28;20472;-70
2022/11/02 07:09:28;;;;;;;6.22;3.25;;;;;;;14.37;100.00;100901.75;5033413;28;20124;-69
2022/11/02 07:11:53;;;;;;;5.53;1.98;;;;;;;14.42;100.00;100901.59;5033202;28;20029;-69
2022/11/02 07:14:19;;;;;;;6.40;2.17;;;;;;;14.44;100.00;100910.47;5033019;28;20029;-69
2022/11/02 07:16:44;;;;;;;6.57;2.00;;;;;;;14.47;100.00;100905.88;5031021;28;20028;-69
2022/11/02 07:19:10;;;;;;;7.00;2.30;;;;;;;14.45;100.00;100902.38;5031515;28;20128;-69
2022/11/02 07:21:35;;;;;;;8.65;2.28;;;;;;;14.62;100.00;100922.31;5032376;28;20029;-69
2022/11/02 07:24:00;;;;;;;10.68;2.70;;;;;;;14.73;100.00;100929.06;5029396;28;20033;-70
2022/11/02 07:26:26;;;;;;;7.05;2.60;;;;;;;14.83;100.00;100922.47;5032089;28;20044;-70
2022/11/02 07:28:52;;;;;;;10.00;2.38;;;;;;;14.94;100.00;100925.63;5032140;28;20084;-70
2022/11/02 07:31:17;;;;;;;7.50;2.33;;;;;;;15.06;100.00;100924.28;5029222;28;20040;-70
2022/11/02 07:33:43;;;;;;;8.60;2.03;;;;;;;15.13;100.00;100924.03;5031652;28;20068;-69
2022/11/02 07:36:08;;;;;;;2.53;1.70;;;;;;;15.27;99.23;100935.09;5030883;28;20766;-67
2022/11/02 07:38:34;;;;;;;8.88;2.25;;;;;;;15.35;98.19;100941.06;5029103;28;20033;-68
2022/11/02 07:40:59;;;;;;;4.95;1.60;;;;;;;15.46;97.36;100944.25;5032686;28;20033;-68
2022/11/02 07:43:25;;;;;;;7.15;1.90;;;;;;;15.53;96.21;100940.41;5027805;28;20037;-68
2022/11/02 07:45:50;;;;;;;6.00;2.15;;;;;;;15.53;95.78;100951.13;5028730;28;20041;-67
2022/11/02 07:48:16;;;;;;;7.18;3.28;;;;;;;15.52;95.08;100954.75;5031001;28;20029;-67
2022/11/02 07:50:41;;;;;;;6.20;1.80;;;;;;;15.55;95.15;100954.63;5025647;28;20080;-68
2022/11/02 07:53:08;;;;;;;4.45;1.70;;;;;;;15.55;95.32;100951.94;5022893;28;20493;-68
2022/11/02 07:55:33;;;;;;;6.47;1.70;;;;;;;15.58;95.55;100962.56;5035249;28;20029;-68
2022/11/02 07:58:02;;;;;;;4.68;1.45;;;;;;;15.49;93.93;100948.63;5028245;28;20473;-67
2022/11/02 08:00:30;;;;;;;2.80;1.30;;;;;;;15.63;94.02;100954.34;5015933;28;20444;-69
2022/11/02 08:02:57;;;;;;;5.22;1.70;;;;;;;15.72;94.69;100960.22;5025620;28;20065;-68
2022/11/02 08:05:23;;;;;;;9.77;2.10;;;;;;;15.79;94.12;100964.44;5017202;28;20477;-69
2022/11/02 08:07:59;;;;;;;5.72;2.10;;;;;;;15.79;93.57;100958.19;5027149;28;20052;-68
2022/11/02 08:10:25;;;;;;;5.38;1.63;;;;;;;15.85;93.44;100967.81;5014524;28;20030;-69
2022/11/02 08:12:50;;;;;;;5.32;1.90;;;;;;;15.96;93.40;100958.41;5021319;28;20083;-69
2022/11/02 08:15:16;;;;;;;5.40;1.52;;;;;;;15.98;93.54;100971.75;5015800;28;20025;-68
2022/11/02 08:17:41;;;;;;;4.95;1.58;;;;;;;16.03;93.53;100967.94;5020219;28;20034;-67
2022/11/02 08:20:07;;;;;;;5.07;1.30;;;;;;;16.10;92.19;100964.09;5019748;28;20789;-70
2022/11/02 08:22:39;;;;;;;4.32;1.40;;;;;;;16.07;91.45;100974.06;5022507;28;20065;-69
2022/11/02 08:25:06;;;;;;;6.38;1.40;;;;;;;16.05;91.56;100971.44;5032486;28;20491;-68
2022/11/02 08:27:32;;;;;;;2.30;1.48;;;;;;;16.07;91.93;100957.97;5032368;28;20028;-69
2022/11/02 08:29:57;;;;;;;4.80;1.40;;;;;;;16.16;91.81;100968.34;5020319;28;20393;-69
2022/11/02 08:32:23;;;;;;;8.77;2.72;;;;;;;16.20;92.15;100973.53;5025308;28;20025;-69
2022/11/02 08:34:48;;;;;;;3.00;1.33;;;;;;;16.37;91.93;100978.22;5024266;28;20938;-69
2022/11/02 08:37:14;;;;;;;6.18;1.70;;;;;;;16.48;90.90;100978.66;5021918;28;20530;-69
2022/11/02 08:39:39;;;;;;;6.05;2.03;;;;;;;16.58;90.35;100980.03;5023159;28;20124;-69
2022/11/02 08:42:05;;;;;;;6.95;2.55;;;;;;;16.64;90.28;100966.34;5023976;28;20025;-69
2022/11/02 08:44:30;;;;;;;9.20;1.50;;;;;;;16.92;89.54;100974.97;5020862;28;20033;-67
2022/11/02 08:46:56;;;;;;;4.25;1.70;;;;;;;17.06;88.51;100978.84;5023679;28;20482;-67
2022/11/02 08:49:21;;;;;;;4.63;1.25;;;;;;;17.49;87.55;100968.88;5026282;28;20041;-67
2022/11/02 08:51:47;;;;;;;11.73;1.38;;;;;;;17.99;83.59;100968.25;5024448;28;20041;-68
2022/11/02 08:54:12;;;;;;;6.45;1.70;;;;;;;18.43;80.35;100966.13;5022617;28;20037;-68
2022/11/02 08:56:38;;;;;;;2.40;1.25;;;;;;;18.60;78.45;100968.84;5026838;28;20021;-68
2022/11/02 08:59:04;;;;;;;4.82;1.60;;;;;;;18.63;78.07;100978.59;5024597;28;20076;-68
2022/11/02 09:01:29;;;;;;;5.60;1.65;;;;;;;18.49;77.18;100984.69;5024073;28;20052;-68
2022/11/02 09:03:55;;;;;;;3.72;1.02;;;;;;;18.10;77.63;100992.81;5027192;28;20036;-67
2022/11/02 09:06:20;;;;;;;5.40;1.13;;;;;;;17.94;78.37;100994.50;5027620;28;20029;-68
2022/11/02 09:08:45;;;;;;;6.57;1.33;;;;;;;17.84;79.54;100995.88;5028381;28;20450;-67
2022/11/02 09:11:11;;;;;;;3.45;1.05;;;;;;;17.75;80.31;100993.63;5024963;28;20075;-66
2022/11/02 09:13:37;;;;;;;5.93;1.70;;;;;;;17.60;80.94;100983.56;5025351;28;20120;-67
2022/11/02 09:16:03;;;;;;;4.05;1.30;;;;;;;17.52;80.13;100974.09;5026000;28;20373;-67
2022/11/02 09:18:29;;;;;;;5.13;1.35;;;;;;;17.44;80.30;100974.44;5023483;28;20086;-66
2022/11/02 09:20:54;;;;;;;3.63;1.23;;;;;;;17.27;80.22;100974.31;5026395;28;20439;-67
2022/11/02 09:23:21;;;;;;;3.58;1.20;;;;;;;17.34;81.22;100970.41;5026362;28;20041;-67
2022/11/02 09:25:47;;;;;;;4.07;1.30;;;;;;;17.45;80.84;100992.34;5022063;28;20496;-67
2022/11/02 09:28:14;;;;;;;2.92;1.13;;;;;;;17.74;80.88;100986.50;5024088;28;20481;-66
2022/11/02 09:30:40;;;;;;;3.63;1.30;;;;;;;17.93;79.87;100991.91;5025751;28;20032;-66
2022/11/02 09:33:05;;;;;;;4.20;1.38;;;;;;;18.43;78.07;100989.50;5025452;28;20033;-67
2022/11/02 09:35:33;;;;;;;6.95;2.50;;;;;;;18.69;76.12;101005.25;5025937;28;20021;-67
2022/11/02 09:37:59;;;;;;;4.50;1.33;;;;;;;18.67;75.46;100988.25;5024425;28;20059;-66
2022/11/02 09:40:36;;;;;;;7.03;1.30;;;;;;;19.43;73.69;100983.38;5023001;28;20061;-67
2022/11/02 09:43:13;;;;;;;8.63;1.80;;;;;;;20.59;68.20;100991.19;5022839;28;20029;-67
2022/11/02 09:46:00;;;;;;;5.75;1.10;;;;;;;21.39;60.70;100996.31;5023066;28;20118;-67
2022/11/02 09:48:52;;;;;;;2.92;1.38;;;;;;;21.98;59.49;100993.47;5022729;28;20041;-66
2022/11/02 09:51:26;;;;;;;6.68;1.63;;;;;;;22.08;57.03;101000.06;5020206;28;20374;-67
2022/11/02 09:54:14;;;;;;;5.28;1.30;;;;;;;22.34;57.54;100991.09;5023715;28;20703;-67
2022/11/02 09:56:41;;;;;;;6.53;1.40;;;;;;;22.62;55.56;100999.19;5019369;28;20037;-67
2022/11/02 09:59:18;;;;;;;5.18;1.17;;;;;;;23.12;54.20;100990.34;5024485;28;20088;-67
2022/11/02 10:02:01;;;;;;;6.35;1.50;;;;;;;23.77;51.82;100988.47;5023862;28;20077;-66
2022/11/02 10:04:48;;;;;;;3.38;1.10;;;;;;;24.28;50.48;100995.59;5023869;28;20033;-66
2022/11/02 10:07:41;;;;;;;4.07;0.80;;;;;;;24.09;50.70;100996.06;5025788;28;20041;-67
2022/11/02 10:10:31;;;;;;;4.50;1.10;;;;;;;24.64;49.61;100999.16;5024137;28;20029;-67
2022/11/02 10:13:39;;;;;;;6.93;1.17;;;;;;;24.29;48.81;100991.88;5026040;28;20036;-67
2022/11/02 10:16:22;;;;;;;3.17;1.15;;;;;;;24.33;48.29;100982.53;5023538;28;20477;-67
2022/11/02 10:18:52;;;;;;;5.80;1.17;;;;;;;24.64;47.35;100988.25;5024756;28;20025;-66
2022/11/02 10:21:28;;;;;;;5.28;1.20;;;;;;;25.18;46.53;100985.06;5025356;28;20125;-66
2022/11/02 10:23:54;;;;;;;5.53;1.17;;;;;;;25.86;44.32;100981.38;5024193;28;20611;-67
2022/11/02 10:26:28;;;;;;;5.85;1.02;;;;;;;26.31;42.85;100985.00;5007022;28;20026;-67
2022/11/02 10:29:22;;;;;;;9.13;1.13;;;;;;;26.50;43.63;100992.53;5024714;28;20031;-67
2022/11/02 10:31:48;;;;;;;8.05;1.27;;;;;;;25.28;43.06;100995.16;5026612;28;20044;-67
2022/11/02 10:34:16;;;;;;;4.95;1.25;;;;;;;24.18;46.82;100992.69;5026174;28;20084;-67
2022/11/02 10:36:51;;;;;;;5.82;1.10;;;;;;;23.42;47.21;100982.81;5028038;28;20076;-68
2022/11/02 10:39:23;;;;;;;2.90;0.93;;;;;;;22.45;49.08;100996.69;5010147;28;20034;-68
2022/11/02 10:41:57;;;;;;;13.57;1.27;;;;;;;21.79;52.12;100988.38;5022157;28;20045;-67
2022/11/02 10:44:40;;;;;;;4.38;1.17;;;;;;;21.45;53.65;100993.25;5027677;28;20381;-68
2022/11/02 10:47:16;;;;;;;4.53;1.03;;;;;;;21.11;54.61;100994.44;5026431;28;20029;-67
2022/11/02 10:49:50;;;;;;;8.27;1.30;;;;;;;20.46;55.71;101003.69;5026837;28;20260;-67
2022/11/02 10:52:17;;;;;;;4.90;1.42;;;;;;;20.14;60.26;100985.72;5032149;28;20025;-67
2022/11/02 10:54:42;;;;;;;5.55;1.23;;;;;;;20.06;61.73;100990.66;5026276;28;20038;-67
2022/11/02 10:57:12;;;;;;;10.73;1.42;;;;;;;19.79;61.05;100984.09;5028933;28;20087;-67
2022/11/02 10:59:38;;;;;;;8.43;1.30;;;;;;;19.67;60.88;100992.84;5031132;28;20050;-66
2022/11/02 11:02:13;;;;;;;6.82;1.30;;;;;;;19.98;62.08;100982.13;5026666;28;20040;-66
2022/11/02 11:04:40;;;;;;;5.03;1.25;;;;;;;20.13;58.86;100975.00;5028633;28;20120;-66
2022/11/02 11:07:14;;;;;;;5.95;1.45;;;;;;;20.45;56.48;100983.03;5029714;28;20021;-66
2022/11/02 11:09:50;;;;;;;;;;;;;;;20.81;53.58;100974.59;5027935;28;20037;-67
2022/11/02 11:12:36;;;;;;;10.57;1.73;;;;;;;21.22;52.52;100969.44;5026852;28;20002;-66
2022/11/02 11:15:05;;;;;;;5.75;1.02;;;;;;;21.05;53.82;100975.00;5027304;28;20044;-67
2022/11/02 11:17:38;;;;;;;9.25;1.67;;;;;;;20.68;54.43;100969.03;5030216;28;20083;-67
2022/11/02 11:20:23;;;;;;;5.50;0.90;;;;;;;21.00;55.23;100967.16;5026997;28;20147;-67
2022/11/02 11:23:24;;;;;;;6.60;1.55;;;;;;;21.10;51.74;100964.75;5026747;28;20460;-66
2022/11/02 11:25:58;;;;;;;4.53;1.40;;;;;;;22.37;49.81;100958.38;5025559;28;20036;-67
2022/11/02 11:28:41;;;;;;;7.90;1.63;;;;;;;22.79;48.48;100949.22;5026170;28;20175;-67
2022/11/02 11:31:13;;;;;;;9.30;1.65;;;;;;;23.04;48.72;100944.75;5025969;28;20029;-67
2022/11/02 11:33:47;;;;;;;6.60;1.52;;;;;;;23.29;49.55;100944.78;5025803;28;20076;-66
2022/11/02 11:36:39;;;;;;;4.53;0.88;;;;;;;24.11;46.31;100938.84;5025253;28;20623;-67
2022/11/02 11:39:38;;;;;;;6.35;1.20;;;;;;;25.27;43.45;100938.91;5023298;28;20128;-67
2022/11/02 11:42:11;;;;;;;8.38;1.17;;;;;;;25.71;42.06;100939.03;4994678;28;20083;-67
2022/11/02 11:44:37;;;;;;;7.00;1.10;;;;;;;25.92;41.99;100926.38;5026435;28;20469;-67